createdAt,value
2018-10-21T00:03:37.888Z,10.7
2018-10-21T00:08:37.895Z,10.7
2018-10-21T00:13:38.098Z,10.7
2018-10-21T00:18:39.224Z,10.6
2018-10-21T00:23:38.922Z,10.6
2018-10-21T00:28:51.570Z,10.6
2018-10-21T00:33:51.431Z,10.6
2018-10-21T00:38:51.323Z,10.5
2018-10-21T00:43:51.322Z,10.5
2018-10-21T00:48:51.551Z,10.5
2018-10-21T00:53:51.481Z,10.5
2018-10-21T00:58:51.507Z,10.4
2018-10-21T01:03:51.691Z,10.4
2018-10-21T01:08:51.580Z,10.4
2018-10-21T01:14:03.695Z,10.3
2018-10-21T01:19:03.640Z,10.3
2018-10-21T01:24:03.552Z,10.3
2018-10-21T01:29:03.599Z,10.3
2018-10-21T01:34:03.408Z,10.3
2018-10-21T01:39:03.460Z,10.3
2018-10-21T01:44:03.428Z,10.2
2018-10-21T01:49:03.520Z,10.2
2018-10-21T01:54:03.523Z,10.2
2018-10-21T01:59:16.016Z,10.2
2018-10-21T02:04:15.564Z,10.1
2018-10-21T02:09:15.767Z,10.1
2018-10-21T02:14:15.842Z,10.1
2018-10-21T02:19:15.591Z,10.1
2018-10-21T02:24:15.735Z,10.1
2018-10-21T02:29:15.602Z,10.1
2018-10-21T02:34:17.063Z,10
2018-10-21T02:39:16.883Z,10
2018-10-21T02:44:29.374Z,10
2018-10-21T02:49:29.251Z,10
2018-10-21T02:54:29.277Z,10
2018-10-21T02:59:29.113Z,9.9
2018-10-21T03:04:29.355Z,9.8
2018-10-21T03:09:29.459Z,9.9
2018-10-21T03:14:29.306Z,9.8
2018-10-21T03:19:30.973Z,9.8
2018-10-21T03:24:30.895Z,9.7
2018-10-21T03:29:43.856Z,9.7
2018-10-21T03:34:43.764Z,9.7
2018-10-21T03:39:43.689Z,9.7
2018-10-21T03:44:43.569Z,9.7
2018-10-21T03:49:43.770Z,9.6
2018-10-21T03:54:43.805Z,9.6
2018-10-21T03:59:43.717Z,9.6
2018-10-21T04:04:44.498Z,9.6
2018-10-21T04:09:44.379Z,9.6
2018-10-21T04:14:56.599Z,9.6
2018-10-21T04:19:56.453Z,9.6
2018-10-21T04:24:56.487Z,9.6
2018-10-21T04:29:56.363Z,9.5
2018-10-21T04:34:56.330Z,9.5
2018-10-21T04:39:56.504Z,9.4
2018-10-21T04:44:56.444Z,9.4
2018-10-21T04:49:59.147Z,9.4
2018-10-21T04:54:58.876Z,9.4
2018-10-21T05:00:10.557Z,9.4
2018-10-21T05:05:10.500Z,9.2
2018-10-21T05:10:10.592Z,9.2
2018-10-21T05:15:10.497Z,9.1
2018-10-21T05:20:10.453Z,9.1
2018-10-21T05:25:10.529Z,9.1
2018-10-21T05:30:10.413Z,9
2018-10-21T05:35:10.690Z,9.1
2018-10-21T05:40:10.821Z,9.1
2018-10-21T05:45:22.806Z,9.1
2018-10-21T05:50:22.662Z,9.2
2018-10-21T05:55:22.703Z,9.2
2018-10-21T06:00:22.510Z,9.2
2018-10-21T06:05:22.668Z,9.1
2018-10-21T06:10:22.695Z,9.2
2018-10-21T06:15:22.732Z,9.1
2018-10-21T06:20:23.023Z,9.2
2018-10-21T06:25:22.765Z,9.2
2018-10-21T06:30:35.954Z,9.2
2018-10-21T06:35:35.794Z,9.2
2018-10-21T06:40:35.805Z,9.3
2018-10-21T06:45:35.942Z,9.4
2018-10-21T06:50:35.896Z,9.5
2018-10-21T06:55:35.684Z,9.6
2018-10-21T07:00:35.836Z,9.6
2018-10-21T07:05:36.419Z,9.7
2018-10-21T07:10:36.339Z,9.8
2018-10-21T07:15:49.102Z,9.7
2018-10-21T07:20:48.870Z,9.8
2018-10-21T07:25:49.037Z,9.7
2018-10-21T07:30:48.768Z,9.6
2018-10-21T07:35:48.790Z,9.6
2018-10-21T07:40:48.771Z,9.8
2018-10-21T07:45:48.775Z,9.9
2018-10-21T07:50:49.591Z,9.9
2018-10-21T07:55:49.353Z,10
2018-10-21T08:01:01.771Z,10.1
2018-10-21T08:06:01.389Z,10.2
2018-10-21T08:11:01.367Z,10.3
2018-10-21T08:16:01.441Z,10.3
2018-10-21T08:21:01.377Z,10.3
2018-10-21T08:26:01.400Z,10.4
2018-10-21T08:31:01.401Z,10.5
2018-10-21T08:36:01.437Z,10.6
2018-10-21T08:41:01.391Z,10.6
2018-10-21T08:46:14.304Z,10.6
2018-10-21T08:51:13.950Z,10.9
2018-10-21T08:56:13.975Z,10.9
2018-10-21T09:01:14.055Z,11.2
2018-10-21T09:06:13.944Z,11.3
2018-10-21T09:11:13.944Z,11.4
2018-10-21T09:16:14.112Z,11.5
2018-10-21T09:21:15.050Z,11.6
2018-10-21T09:26:14.799Z,11.8
2018-10-21T09:31:27.269Z,11.9
2018-10-21T09:36:26.984Z,11.9
2018-10-21T09:41:27.031Z,12.1
2018-10-21T09:46:26.980Z,12.2
2018-10-21T09:51:26.999Z,12.2
2018-10-21T09:56:26.991Z,12.1
2018-10-21T10:01:27.187Z,12.2
2018-10-21T10:06:27.190Z,12.2
2018-10-21T10:11:27.241Z,12.2
2018-10-21T10:16:39.024Z,12.1
2018-10-21T10:21:38.745Z,12.2
2018-10-21T10:26:38.769Z,12.3
2018-10-21T10:31:38.751Z,12.7
2018-10-21T10:36:39.896Z,12.5
2018-10-21T10:41:38.804Z,12.6
2018-10-21T10:46:38.748Z,13
2018-10-21T10:51:39.163Z,12.9
2018-10-21T10:56:38.919Z,13.1
2018-10-21T11:01:51.002Z,12.7
2018-10-21T11:06:50.835Z,12.8
2018-10-21T11:11:50.682Z,13.1
2018-10-21T11:16:50.747Z,12.9
2018-10-21T11:21:50.854Z,12.9
2018-10-21T11:26:50.713Z,12.9
2018-10-21T11:31:50.715Z,12.8
2018-10-21T11:36:53.226Z,12.7
2018-10-21T11:41:52.944Z,12.6
2018-10-21T11:47:03.436Z,12.1
2018-10-21T11:52:03.200Z,12.2
2018-10-21T11:57:03.165Z,12.4
2018-10-21T12:02:03.171Z,12.5
2018-10-21T12:07:03.221Z,12.8
2018-10-21T12:12:03.184Z,12.9
2018-10-21T12:17:03.187Z,13.1
2018-10-21T12:22:05.645Z,13
2018-10-21T12:27:05.335Z,12.7
2018-10-21T12:32:16.270Z,12.7
2018-10-21T12:37:16.032Z,12.4
2018-10-21T12:42:16.026Z,12.5
2018-10-21T12:47:16.091Z,12.4
2018-10-21T12:52:16.201Z,12.5
2018-10-21T12:57:16.038Z,12.6
2018-10-21T13:02:16.101Z,13
2018-10-21T13:07:17.216Z,13.1
2018-10-21T13:12:16.910Z,13
2018-10-21T13:17:29.412Z,12.7
2018-10-21T13:22:29.220Z,12.8
2018-10-21T13:27:29.147Z,12.8
2018-10-21T13:32:29.254Z,12.8
2018-10-21T13:37:29.209Z,13
2018-10-21T13:42:29.165Z,12.9
2018-10-21T13:47:29.334Z,13
2018-10-21T13:52:29.364Z,12.8
2018-10-21T13:57:29.154Z,12.8
2018-10-21T14:02:41.885Z,13
2018-10-21T14:07:41.558Z,13.3
2018-10-21T14:12:41.566Z,13.4
2018-10-21T14:17:41.561Z,13.3
2018-10-21T14:22:41.597Z,13.1
2018-10-21T14:27:41.638Z,12.8
2018-10-21T14:32:41.590Z,12.8
2018-10-21T14:37:41.683Z,12.6
2018-10-21T14:42:41.688Z,12.7
2018-10-21T14:47:53.547Z,12.9
2018-10-21T14:52:53.294Z,12.8
2018-10-21T14:57:53.267Z,12.9
2018-10-21T15:02:53.425Z,12.9
2018-10-21T15:07:53.521Z,12.7
2018-10-21T15:12:53.282Z,12.7
2018-10-21T15:17:53.518Z,12.6
2018-10-21T15:22:53.780Z,12.5
2018-10-21T15:27:53.656Z,12.5
2018-10-21T15:33:06.497Z,12.3
2018-10-21T15:38:06.466Z,12.2
2018-10-21T15:43:06.224Z,12.1
2018-10-21T15:48:06.245Z,12
2018-10-21T15:53:06.403Z,12
2018-10-21T15:58:06.483Z,11.9
2018-10-21T16:03:06.243Z,11.9
2018-10-21T16:08:07.668Z,11.8
2018-10-21T16:13:07.294Z,11.7
2018-10-21T16:18:19.527Z,11.7
2018-10-21T16:23:19.236Z,11.6
2018-10-21T16:28:19.562Z,11.6
2018-10-21T16:33:20.247Z,11.5
2018-10-21T16:38:20.235Z,11.5
2018-10-21T16:43:19.236Z,11.5
2018-10-21T16:48:19.228Z,11.4
2018-10-21T16:53:22.936Z,11.4
2018-10-21T16:58:22.612Z,11.3
2018-10-21T17:03:35.428Z,11.2
2018-10-21T17:08:35.123Z,11.1
2018-10-21T17:13:35.112Z,11
2018-10-21T17:18:35.103Z,11
2018-10-21T17:23:35.269Z,10.9
2018-10-21T17:28:35.327Z,10.8
2018-10-21T17:33:35.296Z,10.7
2018-10-21T17:38:35.289Z,10.6
2018-10-21T17:43:35.291Z,10.4
2018-10-21T17:48:47.863Z,10.3
2018-10-21T17:53:47.857Z,10.1
2018-10-21T17:58:47.961Z,10.1
2018-10-21T18:03:47.599Z,10.1
2018-10-21T18:08:47.913Z,10
2018-10-21T18:13:47.538Z,9.9
2018-10-21T18:18:47.600Z,9.9
2018-10-21T18:23:52.916Z,9.8
2018-10-21T18:28:52.627Z,9.6
2018-10-21T18:34:05.381Z,9.6
2018-10-21T18:39:04.767Z,9.6
2018-10-21T18:44:04.804Z,9.5
2018-10-21T18:49:04.802Z,9.5
2018-10-21T18:54:04.920Z,9.5
2018-10-21T18:59:04.781Z,9.6
2018-10-21T19:04:05.455Z,9.5
2018-10-21T19:09:06.339Z,9.5
2018-10-21T19:14:05.917Z,9.5
2018-10-21T19:19:19.835Z,9.5
2018-10-21T19:24:19.624Z,9.5
2018-10-21T19:29:19.875Z,9.5
2018-10-21T19:34:19.819Z,9.4
2018-10-21T19:39:19.744Z,9.5
2018-10-21T19:44:19.897Z,9.4
2018-10-21T19:49:19.827Z,9.4
2018-10-21T19:54:22.533Z,9.4
2018-10-21T19:59:21.704Z,9.4
2018-10-21T20:04:37.661Z,9.4
2018-10-21T20:09:36.995Z,9.4
2018-10-21T20:14:37.420Z,9.4
2018-10-21T20:19:36.922Z,9.4
2018-10-21T20:24:37.074Z,9.4
2018-10-21T20:29:39.103Z,9.4
2018-10-21T20:34:39.263Z,9.4
2018-10-21T20:39:39.211Z,9.4
2018-10-21T20:44:39.430Z,9.4
2018-10-21T20:49:54.501Z,9.4
2018-10-21T20:54:54.248Z,9.4
2018-10-21T20:59:54.493Z,9.3
2018-10-21T21:04:54.391Z,9.4
2018-10-21T21:09:54.485Z,9.3
2018-10-21T21:14:55.407Z,9.3
2018-10-21T21:19:54.254Z,9.4
2018-10-21T21:24:55.704Z,9.3
2018-10-21T21:29:55.431Z,9.4
2018-10-21T21:35:07.711Z,9.3
2018-10-21T21:40:07.680Z,9.3
2018-10-21T21:45:07.579Z,9.3
2018-10-21T21:50:07.611Z,9.3
2018-10-21T21:55:07.445Z,9.2
2018-10-21T22:00:07.517Z,9.2
2018-10-21T22:05:07.554Z,9.2
2018-10-21T22:10:07.528Z,9.1
2018-10-21T22:15:07.416Z,9.1
2018-10-21T22:20:19.902Z,9
2018-10-21T22:25:19.710Z,9
2018-10-21T22:30:19.768Z,9
2018-10-21T22:35:19.722Z,8.7
2018-10-21T22:40:19.880Z,8.7
2018-10-21T22:45:19.646Z,8.5
2018-10-21T22:50:19.742Z,8.4
2018-10-21T22:55:22.012Z,8.3
2018-10-21T23:00:21.940Z,8.2
2018-10-21T23:05:34.136Z,8.1
2018-10-21T23:10:34.078Z,8
2018-10-21T23:15:34.018Z,7.7
2018-10-21T23:20:34.053Z,7.7
2018-10-21T23:25:34.075Z,7.4
2018-10-21T23:30:34.006Z,7.5
2018-10-21T23:35:34.039Z,7.4
2018-10-21T23:40:34.627Z,7.3
2018-10-21T23:45:34.355Z,7
2018-10-21T23:50:46.918Z,6.9
2018-10-21T23:55:46.628Z,6.9
